createdAt,value
2023-01-08T00:01:36.629Z,5.00
2023-01-08T00:04:05.159Z,5.90
2023-01-08T00:06:35.493Z,4.03
2023-01-08T00:09:04.642Z,3.90
2023-01-08T00:11:33.126Z,4.77
2023-01-08T00:14:02.854Z,3.37
2023-01-08T00:16:31.994Z,4.53
2023-01-08T00:19:00.391Z,3.30
2023-01-08T00:21:29.370Z,3.07
2023-01-08T00:23:57.748Z,2.63
2023-01-08T00:26:26.270Z,2.10
2023-01-08T00:28:54.601Z,3.20
2023-01-08T00:31:24.321Z,2.50
2023-01-08T00:33:52.750Z,3.10
2023-01-08T00:36:21.499Z,3.10
2023-01-08T00:38:49.933Z,3.37
2023-01-08T00:41:18.699Z,3.47
2023-01-08T00:43:47.041Z,3.30
2023-01-08T00:46:15.504Z,3.00
2023-01-08T00:48:45.262Z,3.00
2023-01-08T00:51:14.081Z,2.07
2023-01-08T00:53:42.411Z,4.27
2023-01-08T00:56:11.742Z,2.53
2023-01-08T00:58:40.278Z,4.33
2023-01-08T01:01:12.738Z,4.70
2023-01-08T01:03:42.815Z,1.90
2023-01-08T01:06:14.595Z,3.23
2023-01-08T01:08:44.293Z,2.00
2023-01-08T01:11:18.945Z,3.50
2023-01-08T01:13:47.426Z,3.43
2023-01-08T01:16:16.287Z,2.80
2023-01-08T01:18:44.989Z,4.50
2023-01-08T01:21:22.567Z,3.97
2023-01-08T01:23:51.298Z,3.00
2023-01-08T01:26:21.315Z,2.87
2023-01-08T01:28:50.768Z,2.73
2023-01-08T01:31:20.216Z,2.10
2023-01-08T01:33:49.393Z,2.53
2023-01-08T01:36:22.685Z,5.47
2023-01-08T01:38:52.688Z,3.80
2023-01-08T01:41:26.532Z,4.57
2023-01-08T01:43:56.115Z,2.90
2023-01-08T01:46:35.771Z,2.00
2023-01-08T01:49:09.548Z,2.50
2023-01-08T01:51:42.518Z,2.87
2023-01-08T01:54:13.922Z,2.87
2023-01-08T01:56:43.839Z,3.10
2023-01-08T01:59:13.181Z,4.00
2023-01-08T02:01:43.812Z,3.00
2023-01-08T02:04:13.157Z,10.50
2023-01-08T02:06:48.092Z,2.80
2023-01-08T02:09:24.582Z,1.70
2023-01-08T02:12:14.494Z,4.33
2023-01-08T02:14:54.148Z,3.73
2023-01-08T02:17:28.772Z,5.23
2023-01-08T02:20:04.093Z,6.00
2023-01-08T02:22:45.931Z,4.77
2023-01-08T02:25:21.718Z,2.43
2023-01-08T02:27:55.652Z,4.03
2023-01-08T02:30:24.499Z,4.57
2023-01-08T02:32:52.923Z,2.43
2023-01-08T02:35:21.409Z,3.63
2023-01-08T02:37:49.815Z,3.17
2023-01-08T02:40:27.395Z,6.13
2023-01-08T02:43:03.311Z,2.83
2023-01-08T02:45:38.546Z,2.70
2023-01-08T02:48:13.155Z,2.17
2023-01-08T02:50:45.973Z,2.67
2023-01-08T02:53:17.727Z,4.37
2023-01-08T02:55:50.687Z,2.50
2023-01-08T02:58:22.911Z,2.60
2023-01-08T03:00:52.075Z,4.80
2023-01-08T03:03:23.557Z,2.70
2023-01-08T03:05:54.347Z,2.90
2023-01-08T03:08:24.306Z,2.63
2023-01-08T03:10:57.512Z,2.17
2023-01-08T03:13:31.827Z,2.30
2023-01-08T03:16:13.216Z,1.90
2023-01-08T03:18:48.236Z,2.23
2023-01-08T03:21:19.021Z,3.87
2023-01-08T03:23:48.961Z,2.90
2023-01-08T03:26:21.584Z,4.23
2023-01-08T03:28:55.278Z,3.10
2023-01-08T03:31:26.279Z,2.73
2023-01-08T03:33:56.003Z,3.33
2023-01-08T03:36:29.139Z,7.20
2023-01-08T03:39:01.177Z,4.07
2023-01-08T03:41:32.413Z,4.43
2023-01-08T03:44:02.139Z,3.90
2023-01-08T03:46:34.455Z,5.00
2023-01-08T03:49:05.236Z,3.77
2023-01-08T03:51:40.950Z,3.20
2023-01-08T03:54:12.508Z,3.27
2023-01-08T03:56:41.001Z,3.97
2023-01-08T03:59:12.337Z,5.13
2023-01-08T04:01:41.075Z,3.07
2023-01-08T04:04:11.407Z,3.23
2023-01-08T04:06:39.844Z,2.97
2023-01-08T04:09:08.206Z,4.23
2023-01-08T04:11:36.804Z,4.00
2023-01-08T04:14:05.322Z,3.77
2023-01-08T04:16:35.154Z,4.10
2023-01-08T04:19:03.515Z,8.17
2023-01-08T04:21:31.857Z,4.90
2023-01-08T04:24:00.261Z,2.73
2023-01-08T04:26:28.612Z,2.27
2023-01-08T04:28:57.131Z,1.80
2023-01-08T04:31:25.724Z,2.60
2023-01-08T04:33:55.433Z,3.07
2023-01-08T04:36:23.757Z,4.67
2023-01-08T04:38:52.140Z,3.97
2023-01-08T04:41:20.518Z,5.97
2023-01-08T04:43:48.909Z,7.80
2023-01-08T04:46:17.385Z,4.80
2023-01-08T04:48:45.846Z,3.70
2023-01-08T04:51:15.629Z,3.43
2023-01-08T04:53:45.473Z,3.20
2023-01-08T04:56:13.921Z,3.00
2023-01-08T04:58:42.315Z,3.80
2023-01-08T05:01:13.005Z,4.47
2023-01-08T05:03:41.549Z,4.17
2023-01-08T05:06:09.953Z,3.47
2023-01-08T05:08:39.797Z,5.13
2023-01-08T05:11:08.417Z,7.13
2023-01-08T05:13:36.719Z,4.60
2023-01-08T05:16:05.796Z,3.47
2023-01-08T05:18:34.414Z,3.07
2023-01-08T05:21:03.629Z,4.50
2023-01-08T05:23:32.649Z,3.73
2023-01-08T05:26:03.889Z,3.63
2023-01-08T05:28:32.880Z,3.97
2023-01-08T05:31:01.310Z,5.27
2023-01-08T05:33:29.660Z,4.30
2023-01-08T05:35:58.002Z,4.03
2023-01-08T05:38:26.414Z,4.07
2023-01-08T05:40:55.174Z,3.53
2023-01-08T05:43:24.862Z,2.90
2023-01-08T05:45:53.468Z,3.20
2023-01-08T05:48:21.837Z,2.67
2023-01-08T05:50:50.544Z,2.20
2023-01-08T05:53:18.990Z,3.57
2023-01-08T05:55:47.760Z,3.33
2023-01-08T05:58:18.985Z,2.03
2023-01-08T06:00:48.774Z,2.33
2023-01-08T06:03:17.121Z,2.10
2023-01-08T06:05:45.434Z,3.87
2023-01-08T06:08:13.733Z,3.23
2023-01-08T06:10:42.107Z,2.20
2023-01-08T06:13:11.222Z,4.43
2023-01-08T06:15:40.591Z,4.03
2023-01-08T06:18:10.406Z,2.33
2023-01-08T06:20:38.746Z,3.70
2023-01-08T06:23:08.714Z,2.80
2023-01-08T06:25:37.153Z,7.37
2023-01-08T06:28:06.053Z,3.80
2023-01-08T06:30:34.450Z,3.87
2023-01-08T06:33:03.088Z,4.77
2023-01-08T06:35:32.791Z,3.50
2023-01-08T06:38:01.140Z,4.33
2023-01-08T06:40:29.546Z,5.37
2023-01-08T06:43:01.820Z,4.57
2023-01-08T06:45:30.435Z,2.73
2023-01-08T06:48:02.137Z,4.20
2023-01-08T06:50:32.324Z,5.73
2023-01-08T06:53:00.780Z,8.70
2023-01-08T06:55:29.100Z,5.00
2023-01-08T06:57:58.765Z,8.07
2023-01-08T07:00:27.570Z,4.47
2023-01-08T07:02:56.423Z,5.97
2023-01-08T07:05:25.357Z,18.23
2023-01-08T07:07:55.812Z,10.33
2023-01-08T07:10:24.410Z,11.00
2023-01-08T07:12:52.935Z,10.23
2023-01-08T07:15:21.287Z,8.97
2023-01-08T07:17:49.661Z,9.07
2023-01-08T07:20:18.061Z,7.30
2023-01-08T07:22:46.344Z,6.80
2023-01-08T07:25:16.320Z,6.63
2023-01-08T07:27:44.590Z,6.43
2023-01-08T07:30:28.376Z,6.10
2023-01-08T07:33:00.549Z,4.93
2023-01-08T07:35:29.090Z,4.67
2023-01-08T07:37:57.625Z,5.67
2023-01-08T07:40:27.331Z,6.57
2023-01-08T07:43:00.334Z,6.03
2023-01-08T07:45:29.099Z,9.20
2023-01-08T07:47:58.480Z,5.43
2023-01-08T07:50:27.148Z,4.10
2023-01-08T07:52:59.094Z,3.87
2023-01-08T07:55:30.185Z,7.63
2023-01-08T07:57:59.234Z,6.07
2023-01-08T08:00:28.168Z,6.70
2023-01-08T08:02:56.662Z,4.17
2023-01-08T08:05:25.117Z,4.83
2023-01-08T08:07:53.568Z,4.63
2023-01-08T08:10:24.614Z,3.40
2023-01-08T08:12:54.376Z,4.87
2023-01-08T08:15:22.976Z,5.97
2023-01-08T08:17:51.320Z,7.77
2023-01-08T08:20:19.712Z,3.67
2023-01-08T08:22:48.038Z,6.73
2023-01-08T08:25:16.516Z,3.30
2023-01-08T08:27:45.778Z,3.47
2023-01-08T08:30:16.026Z,4.43
2023-01-08T08:32:44.377Z,4.67
2023-01-08T08:35:12.833Z,8.50
2023-01-08T08:37:41.188Z,8.80
2023-01-08T08:40:10.395Z,11.97
2023-01-08T08:42:38.886Z,8.90
2023-01-08T08:45:08.365Z,8.60
2023-01-08T08:47:38.171Z,4.67
2023-01-08T08:50:07.879Z,5.43
2023-01-08T08:52:37.557Z,22.90
2023-01-08T08:55:06.922Z,16.57
2023-01-08T08:57:35.262Z,12.40
2023-01-08T09:00:03.988Z,12.63
2023-01-08T09:02:32.521Z,7.43
2023-01-08T09:05:02.399Z,8.17
2023-01-08T09:07:33.861Z,11.17
2023-01-08T09:10:04.304Z,3.77
2023-01-08T09:12:32.659Z,2.70
2023-01-08T09:15:01.066Z,4.20
2023-01-08T09:17:29.448Z,3.20
2023-01-08T09:19:57.800Z,5.00
2023-01-08T09:22:27.563Z,42.90
2023-01-08T09:24:56.123Z,8.10
2023-01-08T09:27:24.592Z,12.83
2023-01-08T09:29:53.176Z,3.33
2023-01-08T09:32:21.551Z,3.50
2023-01-08T09:34:49.919Z,2.53
2023-01-08T09:37:18.283Z,5.40
2023-01-08T09:39:51.363Z,2.73
2023-01-08T09:42:25.568Z,2.87
2023-01-08T09:44:58.936Z,5.07
2023-01-08T09:47:30.290Z,6.77
2023-01-08T09:50:02.425Z,4.70
2023-01-08T09:52:32.758Z,5.30
2023-01-08T09:55:02.721Z,5.73
2023-01-08T09:57:31.200Z,5.83
2023-01-08T09:59:59.620Z,6.37
2023-01-08T10:02:29.867Z,18.73
2023-01-08T10:05:01.209Z,6.60
2023-01-08T10:07:31.293Z,8.60
2023-01-08T10:10:00.975Z,17.33
2023-01-08T10:12:32.854Z,6.50
2023-01-08T10:15:03.298Z,35.47
2023-01-08T10:17:38.405Z,16.47
2023-01-08T10:20:13.563Z,9.60
2023-01-08T10:22:44.066Z,11.50
2023-01-08T10:25:14.837Z,3.33
2023-01-08T10:27:49.791Z,4.10
2023-01-08T10:30:20.516Z,3.27
2023-01-08T10:32:54.224Z,2.77
2023-01-08T10:35:26.044Z,2.47
2023-01-08T10:37:54.909Z,6.67
2023-01-08T10:40:29.428Z,3.97
2023-01-08T10:43:06.861Z,3.23
2023-01-08T10:45:35.349Z,2.20
2023-01-08T10:48:08.332Z,2.77
2023-01-08T10:50:36.696Z,2.70
2023-01-08T10:53:06.455Z,3.93
2023-01-08T10:55:37.586Z,3.13
2023-01-08T10:58:16.115Z,3.20
2023-01-08T11:00:44.570Z,2.47
2023-01-08T11:03:24.364Z,2.20
2023-01-08T11:05:52.911Z,3.30
2023-01-08T11:08:23.376Z,2.93
2023-01-08T11:10:56.177Z,3.63
2023-01-08T11:13:27.240Z,3.23
2023-01-08T11:16:03.776Z,2.57
2023-01-08T11:18:35.131Z,2.20
2023-01-08T11:21:11.484Z,2.10
2023-01-08T11:23:39.884Z,2.03
2023-01-08T11:26:11.905Z,3.73
2023-01-08T11:28:50.647Z,2.83
2023-01-08T11:31:22.552Z,3.13
2023-01-08T11:33:56.957Z,2.07
2023-01-08T11:36:31.476Z,2.83
2023-01-08T11:38:59.830Z,1.60
2023-01-08T11:41:45.417Z,2.10
2023-01-08T11:44:29.817Z,2.17
2023-01-08T11:47:06.345Z,2.33
2023-01-08T11:49:51.070Z,2.60
2023-01-08T11:52:35.912Z,2.30
2023-01-08T11:55:19.340Z,2.20
2023-01-08T11:58:00.799Z,3.20
2023-01-08T12:00:44.752Z,3.77
2023-01-08T12:03:23.178Z,2.53
2023-01-08T12:06:01.673Z,2.33
2023-01-08T12:08:40.977Z,5.77
2023-01-08T12:11:18.138Z,14.63
2023-01-08T12:14:03.882Z,7.03
2023-01-08T12:16:56.282Z,13.97
2023-01-08T12:19:38.580Z,31.00
2023-01-08T12:22:25.327Z,26.57
2023-01-08T12:25:23.615Z,31.13
2023-01-08T12:28:02.189Z,10.50
2023-01-08T12:30:47.761Z,18.73
2023-01-08T12:33:24.949Z,4.60
2023-01-08T12:35:56.257Z,7.53
2023-01-08T12:38:29.854Z,7.00
2023-01-08T12:41:01.411Z,4.73
2023-01-08T12:43:35.785Z,5.77
2023-01-08T12:46:06.686Z,4.80
2023-01-08T12:48:37.501Z,3.97
2023-01-08T12:51:13.510Z,4.73
2023-01-08T12:53:50.677Z,3.77
2023-01-08T12:56:25.828Z,2.40
2023-01-08T12:59:22.787Z,2.20
2023-01-08T13:01:59.008Z,3.53
2023-01-08T13:04:28.837Z,5.60
2023-01-08T13:07:03.128Z,2.87
2023-01-08T13:09:32.944Z,6.13
2023-01-08T13:12:02.237Z,3.77
2023-01-08T13:14:42.468Z,3.80
2023-01-08T13:17:18.784Z,5.23
2023-01-08T13:19:54.728Z,4.07
2023-01-08T13:22:29.127Z,3.93
2023-01-08T13:25:12.035Z,2.77
2023-01-08T13:27:40.377Z,2.57
2023-01-08T13:30:49.104Z,2.60
2023-01-08T13:33:27.421Z,2.50
2023-01-08T13:36:20.931Z,2.47
2023-01-08T13:39:08.121Z,3.23
2023-01-08T13:41:40.040Z,9.10
2023-01-08T13:44:28.492Z,18.47
2023-01-08T13:47:01.237Z,6.80
2023-01-08T13:49:35.472Z,6.30
2023-01-08T13:52:06.516Z,13.27
2023-01-08T13:54:39.353Z,5.73
2023-01-08T13:57:14.430Z,5.10
2023-01-08T13:59:49.147Z,8.57
2023-01-08T14:02:42.542Z,5.70
2023-01-08T14:05:20.365Z,4.90
2023-01-08T14:07:50.141Z,5.03
2023-01-08T14:10:19.230Z,4.37
2023-01-08T14:12:48.262Z,3.90
2023-01-08T14:15:23.906Z,5.10
2023-01-08T14:17:52.969Z,4.83
2023-01-08T14:20:29.941Z,4.33
2023-01-08T14:23:00.728Z,4.60
2023-01-08T14:25:30.170Z,7.50
2023-01-08T14:28:01.085Z,4.43
2023-01-08T14:30:30.016Z,6.00
2023-01-08T14:33:00.722Z,4.70
2023-01-08T14:35:32.711Z,7.90
2023-01-08T14:38:05.827Z,13.33
2023-01-08T14:40:39.077Z,9.67
2023-01-08T14:43:13.489Z,7.50
2023-01-08T14:45:48.204Z,6.23
2023-01-08T14:48:21.888Z,6.53
2023-01-08T14:51:04.147Z,5.83
2023-01-08T14:53:37.635Z,8.13
2023-01-08T14:56:07.875Z,5.40
2023-01-08T14:58:39.075Z,7.63
2023-01-08T15:01:09.981Z,16.73
2023-01-08T15:03:40.987Z,7.50
2023-01-08T15:06:11.490Z,6.60
2023-01-08T15:08:43.057Z,7.33
2023-01-08T15:11:22.861Z,10.97
2023-01-08T15:13:52.982Z,7.13
2023-01-08T15:16:29.768Z,9.67
2023-01-08T15:19:05.194Z,13.37
2023-01-08T15:21:34.346Z,12.93
2023-01-08T15:24:06.715Z,10.07
2023-01-08T15:26:35.487Z,10.63
2023-01-08T15:29:07.644Z,9.00
2023-01-08T15:31:47.300Z,14.73
2023-01-08T15:34:19.173Z,12.83
2023-01-08T15:36:47.899Z,9.93
2023-01-08T15:39:17.574Z,13.00
2023-01-08T15:42:03.556Z,11.70
2023-01-08T15:44:31.912Z,16.40
2023-01-08T15:47:00.282Z,10.77
2023-01-08T15:49:28.689Z,10.47
2023-01-08T15:51:57.296Z,14.33
2023-01-08T15:54:27.153Z,12.83
2023-01-08T15:56:55.514Z,12.60
2023-01-08T15:59:24.045Z,13.93
2023-01-08T16:01:55.498Z,9.37
2023-01-08T16:04:24.139Z,10.97
2023-01-08T16:06:52.518Z,13.53
2023-01-08T16:09:20.881Z,14.10
2023-01-08T16:11:52.515Z,12.73
2023-01-08T16:14:20.860Z,18.33
2023-01-08T16:16:49.475Z,11.70
2023-01-08T16:19:17.929Z,14.33
2023-01-08T16:21:48.199Z,11.87
2023-01-08T16:24:17.099Z,10.30
2023-01-08T16:26:45.810Z,11.67
2023-01-08T16:29:15.753Z,19.40
2023-01-08T16:31:46.727Z,17.27
2023-01-08T16:34:16.640Z,13.80
2023-01-08T16:36:45.148Z,11.80
2023-01-08T16:39:13.695Z,7.03
2023-01-08T16:41:42.408Z,6.67
2023-01-08T16:44:19.255Z,7.20
2023-01-08T16:46:47.786Z,7.33
2023-01-08T16:49:16.255Z,9.67
2023-01-08T16:51:44.672Z,5.63
2023-01-08T16:54:13.635Z,10.30
2023-01-08T16:56:42.053Z,9.40
2023-01-08T16:59:22.844Z,11.77
2023-01-08T17:01:54.371Z,13.07
2023-01-08T17:04:22.794Z,14.60
2023-01-08T17:06:51.146Z,17.37
2023-01-08T17:09:19.539Z,19.47
2023-01-08T17:11:48.011Z,18.27
2023-01-08T17:14:16.579Z,18.67
2023-01-08T17:16:46.033Z,13.50
2023-01-08T17:19:16.610Z,13.67
2023-01-08T17:21:45.950Z,19.77
2023-01-08T17:24:14.664Z,16.27
2023-01-08T17:26:43.048Z,18.30
2023-01-08T17:29:11.466Z,17.33
2023-01-08T17:31:40.731Z,20.03
2023-01-08T17:34:12.369Z,18.97
2023-01-08T17:36:42.561Z,18.13
2023-01-08T17:39:12.098Z,27.13
2023-01-08T17:41:57.944Z,25.07
2023-01-08T17:44:26.513Z,26.30
2023-01-08T17:46:54.915Z,21.73
2023-01-08T17:49:23.572Z,20.60
2023-01-08T17:51:53.432Z,21.73
2023-01-08T17:54:22.430Z,23.63
2023-01-08T17:56:53.580Z,20.07
2023-01-08T17:59:22.342Z,17.23
2023-01-08T18:01:53.455Z,15.73
2023-01-08T18:04:22.080Z,21.63
2023-01-08T18:06:50.481Z,15.27
2023-01-08T18:09:20.341Z,22.27
2023-01-08T18:11:48.650Z,14.23
2023-01-08T18:14:17.145Z,13.97
2023-01-08T18:16:46.097Z,14.33
2023-01-08T18:19:15.782Z,12.60
2023-01-08T18:21:44.585Z,15.97
2023-01-08T18:24:12.992Z,18.23
2023-01-08T18:26:43.508Z,15.90
2023-01-08T18:29:11.951Z,13.17
2023-01-08T18:31:40.379Z,17.70
2023-01-08T18:34:09.718Z,16.50
2023-01-08T18:36:38.093Z,15.33
2023-01-08T18:39:06.485Z,12.33
2023-01-08T18:41:52.310Z,16.20
2023-01-08T18:44:22.020Z,14.77
2023-01-08T18:46:50.350Z,16.37
2023-01-08T18:49:20.196Z,12.40
2023-01-08T18:51:48.568Z,10.60
2023-01-08T18:54:17.029Z,12.97
2023-01-08T18:56:46.420Z,9.57
2023-01-08T18:59:14.999Z,11.23
2023-01-08T19:01:44.808Z,7.87
2023-01-08T19:04:17.186Z,8.93
2023-01-08T19:06:45.637Z,10.57
2023-01-08T19:09:15.788Z,7.50
2023-01-08T19:11:44.596Z,8.37
2023-01-08T19:14:13.637Z,10.87
2023-01-08T19:16:43.658Z,8.23
2023-01-08T19:19:13.421Z,12.63
2023-01-08T19:21:41.742Z,8.23
2023-01-08T19:24:10.773Z,12.53
2023-01-08T19:26:39.825Z,10.03
2023-01-08T19:29:08.367Z,8.03
2023-01-08T19:31:36.986Z,9.10
2023-01-08T19:34:06.265Z,8.60
2023-01-08T19:36:35.993Z,8.17
2023-01-08T19:39:05.360Z,7.87
2023-01-08T19:41:51.336Z,8.13
2023-01-08T19:44:19.706Z,7.93
2023-01-08T19:46:48.047Z,7.30
2023-01-08T19:49:17.002Z,8.57
2023-01-08T19:51:46.697Z,6.63
2023-01-08T19:54:15.112Z,9.90
2023-01-08T19:56:43.520Z,10.53
2023-01-08T19:59:12.448Z,9.20
2023-01-08T20:01:42.809Z,8.80
2023-01-08T20:04:12.396Z,10.07
2023-01-08T20:06:40.798Z,12.17
2023-01-08T20:09:10.500Z,12.07
2023-01-08T20:11:38.956Z,13.00
2023-01-08T20:14:07.514Z,14.63
2023-01-08T20:16:35.890Z,16.93
2023-01-08T20:19:04.943Z,14.90
2023-01-08T20:21:34.913Z,13.03
2023-01-08T20:24:07.216Z,13.03
2023-01-08T20:26:37.754Z,13.23
2023-01-08T20:29:06.609Z,11.33
2023-01-08T20:31:35.653Z,10.73
2023-01-08T20:34:05.778Z,10.60
2023-01-08T20:36:35.544Z,11.50
2023-01-08T20:39:06.317Z,11.03
2023-01-08T20:41:36.417Z,13.40
2023-01-08T20:44:06.806Z,13.43
2023-01-08T20:46:37.595Z,11.00
2023-01-08T20:49:08.711Z,11.27
2023-01-08T20:51:39.625Z,9.77
2023-01-08T20:54:10.672Z,12.03
2023-01-08T20:56:40.851Z,14.10
2023-01-08T20:59:09.333Z,15.60
2023-01-08T21:01:38.784Z,13.27
2023-01-08T21:04:10.401Z,13.20
2023-01-08T21:06:39.084Z,15.03
2023-01-08T21:09:09.654Z,12.10
2023-01-08T21:11:41.705Z,11.17
2023-01-08T21:14:11.402Z,10.43
2023-01-08T21:16:40.696Z,11.33
2023-01-08T21:19:10.436Z,12.80
2023-01-08T21:21:40.846Z,14.83
2023-01-08T21:24:10.848Z,14.63
2023-01-08T21:26:39.617Z,14.03
2023-01-08T21:29:09.931Z,15.87
2023-01-08T21:31:39.420Z,12.70
2023-01-08T21:34:09.458Z,12.20
2023-01-08T21:36:39.249Z,12.33
2023-01-08T21:39:07.984Z,15.00
2023-01-08T21:41:53.573Z,14.77
2023-01-08T21:44:42.896Z,15.77
2023-01-08T21:47:16.392Z,13.50
2023-01-08T21:49:45.862Z,17.03
2023-01-08T21:52:31.831Z,13.43
2023-01-08T21:55:00.155Z,12.47
2023-01-08T21:57:29.139Z,11.40
2023-01-08T21:59:58.851Z,12.03
2023-01-08T22:02:27.287Z,12.83
2023-01-08T22:04:56.542Z,10.87
2023-01-08T22:07:25.171Z,14.03
2023-01-08T22:09:53.978Z,11.43
2023-01-08T22:12:23.685Z,15.97
2023-01-08T22:14:53.488Z,19.07
2023-01-08T22:17:24.557Z,17.20
2023-01-08T22:19:53.542Z,14.83
2023-01-08T22:22:22.227Z,18.53
2023-01-08T22:24:51.755Z,13.93
2023-01-08T22:27:20.740Z,12.07
2023-01-08T22:29:49.350Z,12.43
2023-01-08T22:32:17.757Z,13.40
2023-01-08T22:34:48.250Z,13.33
2023-01-08T22:37:18.519Z,13.57
2023-01-08T22:39:46.981Z,12.53
2023-01-08T22:42:15.586Z,10.97
2023-01-08T22:44:44.237Z,10.57
2023-01-08T22:47:12.628Z,11.67
2023-01-08T22:49:41.015Z,12.50
2023-01-08T22:52:11.002Z,11.73
2023-01-08T22:54:39.884Z,10.63
2023-01-08T22:57:08.513Z,11.60
2023-01-08T22:59:36.988Z,11.30
2023-01-08T23:02:05.569Z,13.77
2023-01-08T23:04:33.949Z,14.63
2023-01-08T23:07:02.328Z,13.83
2023-01-08T23:09:32.229Z,13.10
2023-01-08T23:12:00.973Z,10.60
2023-01-08T23:14:29.722Z,9.83
2023-01-08T23:16:58.246Z,7.70
2023-01-08T23:19:26.733Z,9.93
2023-01-08T23:21:55.282Z,9.67
2023-01-08T23:24:23.629Z,8.20
2023-01-08T23:26:53.409Z,8.57
2023-01-08T23:29:21.831Z,10.00
2023-01-08T23:31:51.044Z,10.80
2023-01-08T23:34:20.822Z,7.10
2023-01-08T23:36:49.152Z,6.13
2023-01-08T23:39:17.598Z,8.57
2023-01-08T23:41:46.553Z,15.90
2023-01-08T23:44:16.920Z,9.93
2023-01-08T23:46:45.254Z,8.73
2023-01-08T23:49:13.710Z,8.93
2023-01-08T23:51:42.728Z,13.93
2023-01-08T23:54:12.000Z,8.87
2023-01-08T23:56:40.562Z,8.20
2023-01-08T23:59:09.055Z,7.47
